createdAt,value
2023-02-01T00:01:12.459Z,4.94
2023-02-01T00:03:41.959Z,4.94
2023-02-01T00:06:09.460Z,4.92
2023-02-01T00:08:36.783Z,4.94
2023-02-01T00:11:10.626Z,4.94
2023-02-01T00:13:41.577Z,4.95
2023-02-01T00:16:13.404Z,4.97
2023-02-01T00:18:41.946Z,4.95
2023-02-01T00:21:11.349Z,4.94
2023-02-01T00:23:42.282Z,4.95
2023-02-01T00:26:26.967Z,4.95
2023-02-01T00:28:55.800Z,4.94
2023-02-01T00:31:23.871Z,4.95
2023-02-01T00:33:53.958Z,4.96
2023-02-01T00:36:21.460Z,4.98
2023-02-01T00:38:49.079Z,5.00
2023-02-01T00:41:21.636Z,5.01
2023-02-01T00:43:49.971Z,5.03
2023-02-01T00:46:19.750Z,5.02
2023-02-01T00:48:47.517Z,5.03
2023-02-01T00:51:18.852Z,5.04
2023-02-01T00:53:46.659Z,5.06
2023-02-01T00:56:14.572Z,5.07
2023-02-01T00:58:45.246Z,5.09
2023-02-01T01:01:28.352Z,5.10
2023-02-01T01:03:59.657Z,5.13
2023-02-01T01:06:33.748Z,5.14
2023-02-01T01:09:04.017Z,5.14
2023-02-01T01:11:34.293Z,5.14
2023-02-01T01:14:01.906Z,5.16
2023-02-01T01:16:33.744Z,5.16
2023-02-01T01:19:02.404Z,5.17
2023-02-01T01:21:30.560Z,5.16
2023-02-01T01:23:58.749Z,5.17
2023-02-01T01:26:31.063Z,5.17
2023-02-01T01:29:00.387Z,5.16
2023-02-01T01:31:28.649Z,5.17
2023-02-01T01:33:58.052Z,5.17
2023-02-01T01:36:27.765Z,5.15
2023-02-01T01:38:56.845Z,5.13
2023-02-01T01:41:27.345Z,5.09
2023-02-01T01:43:57.733Z,5.10
2023-02-01T01:46:28.857Z,5.08
2023-02-01T01:49:01.986Z,5.07
2023-02-01T01:51:32.954Z,5.07
2023-02-01T01:54:16.397Z,5.07
2023-02-01T01:56:52.025Z,5.05
2023-02-01T01:59:22.612Z,5.04
2023-02-01T02:01:50.307Z,5.03
2023-02-01T02:04:18.141Z,4.99
2023-02-01T02:06:56.515Z,4.98
2023-02-01T02:09:24.426Z,4.97
2023-02-01T02:11:51.681Z,4.92
2023-02-01T02:14:21.729Z,4.91
2023-02-01T02:17:29.692Z,4.89
2023-02-01T02:20:28.973Z,4.87
2023-02-01T02:22:59.250Z,4.87
2023-02-01T02:25:58.039Z,4.86
2023-02-01T02:29:03.231Z,4.84
2023-02-01T02:32:02.724Z,4.83
2023-02-01T02:34:40.146Z,4.82
2023-02-01T02:37:13.307Z,4.80
2023-02-01T02:39:47.017Z,4.77
2023-02-01T02:42:35.974Z,4.75
2023-02-01T02:45:27.910Z,4.71
2023-02-01T02:48:05.340Z,4.67
2023-02-01T02:51:08.861Z,4.66
2023-02-01T02:54:03.821Z,4.64
2023-02-01T02:56:49.982Z,4.63
2023-02-01T02:59:41.568Z,4.64
2023-02-01T03:02:31.084Z,4.63
2023-02-01T03:04:59.124Z,4.64
2023-02-01T03:07:49.063Z,4.65
2023-02-01T03:10:41.425Z,4.67
2023-02-01T03:13:26.855Z,4.71
2023-02-01T03:16:07.824Z,4.73
2023-02-01T03:18:53.672Z,4.75
2023-02-01T03:21:27.624Z,4.74
2023-02-01T03:23:59.887Z,4.75
2023-02-01T03:26:29.736Z,4.73
2023-02-01T03:29:02.594Z,4.74
2023-02-01T03:31:30.231Z,4.76
2023-02-01T03:33:57.491Z,4.78
2023-02-01T03:36:40.197Z,4.81
2023-02-01T03:39:18.178Z,4.85
2023-02-01T03:41:59.942Z,4.89
2023-02-01T03:44:41.593Z,4.94
2023-02-01T03:47:17.918Z,4.97
2023-02-01T03:50:09.653Z,4.93
2023-02-01T03:52:42.709Z,4.91
2023-02-01T03:55:13.691Z,4.90
2023-02-01T03:57:47.129Z,4.87
2023-02-01T04:00:25.231Z,4.81
2023-02-01T04:02:54.051Z,4.73
2023-02-01T04:05:22.631Z,4.66
2023-02-01T04:08:00.993Z,4.58
2023-02-01T04:10:28.749Z,4.53
2023-02-01T04:12:56.082Z,4.47
2023-02-01T04:15:23.636Z,4.34
2023-02-01T04:17:51.205Z,4.32
2023-02-01T04:20:20.885Z,4.34
2023-02-01T04:22:48.345Z,4.34
2023-02-01T04:25:15.634Z,4.34
2023-02-01T04:27:42.982Z,4.35
2023-02-01T04:30:11.703Z,4.41
2023-02-01T04:32:41.649Z,4.45
2023-02-01T04:35:09.454Z,4.53
2023-02-01T04:37:37.047Z,4.56
2023-02-01T04:40:04.849Z,4.58
2023-02-01T04:42:32.630Z,4.62
2023-02-01T04:44:59.928Z,4.64
2023-02-01T04:47:28.348Z,4.66
2023-02-01T04:49:55.817Z,4.67
2023-02-01T04:52:23.191Z,4.68
2023-02-01T04:54:50.528Z,4.69
2023-02-01T04:57:17.781Z,4.69
2023-02-01T04:59:45.033Z,4.70
2023-02-01T05:02:12.310Z,4.72
2023-02-01T05:04:41.745Z,4.75
2023-02-01T05:07:09.016Z,4.77
2023-02-01T05:09:36.303Z,4.77
2023-02-01T05:12:22.502Z,4.78
2023-02-01T05:14:50.100Z,4.80
2023-02-01T05:17:17.570Z,4.81
2023-02-01T05:19:44.905Z,4.81
2023-02-01T05:22:12.238Z,4.82
2023-02-01T05:24:41.569Z,4.85
2023-02-01T05:27:09.269Z,4.85
2023-02-01T05:29:39.360Z,4.84
2023-02-01T05:32:21.010Z,4.80
2023-02-01T05:34:48.905Z,4.79
2023-02-01T05:37:16.179Z,4.80
2023-02-01T05:39:43.544Z,4.80
2023-02-01T05:42:11.712Z,4.81
2023-02-01T05:44:39.258Z,4.82
2023-02-01T05:47:07.183Z,4.84
2023-02-01T05:49:34.439Z,4.85
2023-02-01T05:52:03.892Z,4.87
2023-02-01T05:54:33.551Z,4.88
2023-02-01T05:57:00.936Z,4.87
2023-02-01T05:59:28.240Z,4.88
2023-02-01T06:01:55.930Z,4.91
2023-02-01T06:04:23.277Z,4.93
2023-02-01T06:06:51.682Z,4.94
2023-02-01T06:09:19.056Z,4.95
2023-02-01T06:11:46.387Z,4.95
2023-02-01T06:14:13.748Z,4.95
2023-02-01T06:16:42.133Z,4.95
2023-02-01T06:19:09.931Z,4.94
2023-02-01T06:21:37.734Z,4.93
2023-02-01T06:24:05.303Z,4.92
2023-02-01T06:26:33.264Z,4.90
2023-02-01T06:29:01.232Z,4.90
2023-02-01T06:31:28.686Z,4.90
2023-02-01T06:33:56.119Z,4.89
2023-02-01T06:36:23.504Z,4.90
2023-02-01T06:38:50.816Z,4.91
2023-02-01T06:41:18.164Z,4.90
2023-02-01T06:43:46.635Z,4.88
2023-02-01T06:46:14.686Z,4.85
2023-02-01T06:48:47.138Z,4.84
2023-02-01T06:51:21.289Z,4.80
2023-02-01T06:53:48.968Z,4.78
2023-02-01T06:56:16.550Z,4.78
2023-02-01T06:58:43.899Z,4.77
2023-02-01T07:01:12.039Z,4.77
2023-02-01T07:03:42.146Z,4.80
2023-02-01T07:06:10.730Z,4.81
2023-02-01T07:08:40.964Z,4.84
2023-02-01T07:11:12.151Z,4.88
2023-02-01T07:13:45.503Z,4.91
2023-02-01T07:16:15.894Z,4.95
2023-02-01T07:18:43.616Z,4.98
2023-02-01T07:21:11.257Z,4.99
2023-02-01T07:23:41.624Z,5.00
2023-02-01T07:26:13.530Z,4.99
2023-02-01T07:28:45.703Z,4.99
2023-02-01T07:31:20.167Z,4.99
2023-02-01T07:33:49.051Z,5.00
2023-02-01T07:36:17.707Z,5.04
2023-02-01T07:38:45.743Z,5.05
2023-02-01T07:41:12.976Z,5.08
2023-02-01T07:43:42.625Z,5.11
2023-02-01T07:46:12.304Z,5.13
2023-02-01T07:48:44.334Z,5.17
2023-02-01T07:51:16.832Z,5.17
2023-02-01T07:53:46.412Z,5.18
2023-02-01T07:56:17.796Z,5.20
2023-02-01T07:58:50.583Z,5.21
2023-02-01T08:01:25.395Z,5.21
2023-02-01T08:04:01.537Z,5.22
2023-02-01T08:06:32.597Z,5.23
2023-02-01T08:09:00.268Z,5.23
2023-02-01T08:11:28.323Z,5.23
2023-02-01T08:13:55.700Z,5.23
2023-02-01T08:16:24.473Z,5.23
2023-02-01T08:18:53.472Z,5.23
2023-02-01T08:21:24.302Z,5.24
2023-02-01T08:23:52.355Z,5.23
2023-02-01T08:26:25.344Z,5.22
2023-02-01T08:29:01.584Z,5.23
2023-02-01T08:31:30.619Z,5.23
2023-02-01T08:34:00.609Z,5.23
2023-02-01T08:36:30.237Z,5.23
2023-02-01T08:38:57.804Z,5.24
2023-02-01T08:41:28.212Z,5.27
2023-02-01T08:43:56.314Z,5.26
2023-02-01T08:46:25.014Z,5.27
2023-02-01T08:48:53.516Z,5.26
2023-02-01T08:51:23.445Z,5.27
2023-02-01T08:53:51.137Z,5.28
2023-02-01T08:56:20.004Z,5.29
2023-02-01T08:58:47.911Z,5.31
2023-02-01T09:01:17.800Z,5.32
2023-02-01T09:03:45.889Z,5.34
2023-02-01T09:06:14.974Z,5.36
2023-02-01T09:08:43.850Z,5.36
2023-02-01T09:11:16.967Z,5.38
2023-02-01T09:13:44.897Z,5.39
2023-02-01T09:16:12.779Z,5.39
2023-02-01T09:18:55.348Z,5.39
2023-02-01T09:21:29.864Z,5.38
2023-02-01T09:23:57.521Z,5.37
2023-02-01T09:26:31.506Z,5.37
2023-02-01T09:28:59.733Z,5.37
2023-02-01T09:31:27.506Z,5.37
2023-02-01T09:33:55.012Z,5.38
2023-02-01T09:36:22.561Z,5.37
2023-02-01T09:38:53.539Z,5.38
2023-02-01T09:41:55.123Z,5.40
2023-02-01T09:44:43.917Z,5.42
2023-02-01T09:47:18.250Z,5.43
2023-02-01T09:50:22.044Z,5.42
2023-02-01T09:53:03.355Z,5.42
2023-02-01T09:55:48.451Z,5.39
2023-02-01T09:58:27.853Z,5.38
2023-02-01T10:00:58.661Z,5.36
2023-02-01T10:03:28.975Z,5.30
2023-02-01T10:06:07.239Z,5.22
2023-02-01T10:08:57.750Z,5.18
2023-02-01T10:12:03.281Z,5.15
2023-02-01T10:14:49.971Z,5.10
2023-02-01T10:17:53.956Z,5.04
2023-02-01T10:20:44.378Z,5.01
2023-02-01T10:23:45.710Z,4.98
2023-02-01T10:26:23.514Z,4.97
2023-02-01T10:28:54.495Z,4.94
2023-02-01T10:31:26.487Z,4.92
2023-02-01T10:34:00.001Z,4.92
2023-02-01T10:36:36.702Z,4.92
2023-02-01T10:39:08.824Z,4.92
2023-02-01T10:41:41.510Z,4.94
2023-02-01T10:44:15.563Z,4.95
2023-02-01T10:46:44.116Z,4.98
2023-02-01T10:49:34.436Z,5.00
2023-02-01T10:52:20.274Z,5.04
2023-02-01T10:54:48.835Z,5.09
2023-02-01T10:57:26.930Z,5.16
2023-02-01T10:59:54.554Z,5.26
2023-02-01T11:02:33.719Z,5.30
2023-02-01T11:05:08.009Z,4.73
2023-02-01T11:07:36.855Z,4.03
2023-02-01T11:10:05.476Z,3.53
2023-02-01T11:12:37.160Z,3.08
2023-02-01T11:15:23.504Z,2.73
2023-02-01T11:17:52.955Z,2.50
2023-02-01T11:20:36.205Z,2.37
2023-02-01T11:23:04.083Z,2.21
2023-02-01T11:25:36.324Z,2.13
2023-02-01T11:28:03.741Z,2.07
2023-02-01T11:30:45.265Z,2.07
2023-02-01T11:33:28.688Z,2.03
2023-02-01T11:35:58.861Z,2.00
2023-02-01T11:38:33.385Z,1.99
2023-02-01T11:41:27.069Z,1.99
2023-02-01T11:43:56.049Z,2.00
2023-02-01T11:46:35.175Z,2.00
2023-02-01T11:49:27.861Z,2.02
2023-02-01T11:51:55.495Z,2.04
2023-02-01T11:54:33.727Z,2.09
2023-02-01T11:57:25.310Z,2.13
2023-02-01T12:00:22.342Z,2.22
2023-02-01T12:02:50.163Z,2.30
2023-02-01T12:05:30.963Z,2.37
2023-02-01T12:08:09.163Z,2.44
2023-02-01T12:11:20.544Z,2.51
2023-02-01T12:13:53.137Z,2.57
2023-02-01T12:16:29.804Z,2.61
2023-02-01T12:18:57.681Z,2.65
2023-02-01T12:21:41.009Z,2.70
2023-02-01T12:24:42.738Z,2.75
2023-02-01T12:27:16.034Z,2.80
2023-02-01T12:30:11.376Z,2.87
2023-02-01T12:32:57.534Z,3.05
2023-02-01T12:35:51.278Z,3.22
2023-02-01T12:38:43.589Z,3.32
2023-02-01T12:41:23.376Z,3.45
2023-02-01T12:44:02.998Z,3.52
2023-02-01T12:46:55.636Z,3.57
2023-02-01T12:50:18.966Z,3.65
2023-02-01T12:52:50.380Z,3.84
2023-02-01T12:55:38.139Z,4.03
2023-02-01T12:58:20.431Z,4.23
2023-02-01T13:00:55.673Z,4.41
2023-02-01T13:03:46.724Z,4.64
2023-02-01T13:06:19.963Z,4.85
2023-02-01T13:08:53.956Z,5.03
2023-02-01T13:11:40.197Z,5.22
2023-02-01T13:14:19.911Z,5.45
2023-02-01T13:16:52.311Z,5.63
2023-02-01T13:19:40.999Z,5.79
2023-02-01T13:22:26.921Z,5.92
2023-02-01T13:25:01.877Z,5.96
2023-02-01T13:27:33.920Z,6.03
2023-02-01T13:30:13.608Z,6.14
2023-02-01T13:33:54.260Z,6.26
2023-02-01T13:36:07.557Z,6.32
2023-02-01T13:39:03.267Z,6.37
2023-02-01T13:41:36.254Z,6.38
2023-02-01T13:44:15.052Z,6.37
2023-02-01T13:46:46.689Z,6.36
2023-02-01T13:49:25.590Z,6.37
2023-02-01T13:51:56.870Z,6.41
2023-02-01T13:54:34.694Z,6.46
2023-02-01T13:57:04.337Z,6.50
2023-02-01T13:59:46.692Z,6.48
2023-02-01T14:02:38.513Z,6.42
2023-02-01T14:05:11.006Z,6.39
2023-02-01T14:08:04.070Z,6.34
2023-02-01T14:10:50.250Z,6.30
2023-02-01T14:13:37.228Z,6.25
2023-02-01T14:16:04.938Z,6.24
2023-02-01T14:18:38.478Z,6.24
2023-02-01T14:21:37.274Z,6.22
2023-02-01T14:24:10.719Z,6.23
2023-02-01T14:26:55.787Z,6.28
2023-02-01T14:29:37.604Z,6.32
2023-02-01T14:32:26.650Z,6.34
2023-02-01T14:34:58.259Z,6.35
2023-02-01T14:37:30.091Z,6.34
2023-02-01T14:40:14.298Z,6.31
2023-02-01T14:42:48.928Z,6.29
2023-02-01T14:45:26.264Z,6.24
2023-02-01T14:47:58.375Z,6.27
2023-02-01T14:50:38.975Z,6.28
2023-02-01T14:53:13.377Z,6.31
2023-02-01T14:55:45.540Z,6.31
2023-02-01T14:58:31.328Z,6.32
2023-02-01T15:01:22.059Z,6.34
2023-02-01T15:04:03.061Z,6.33
2023-02-01T15:06:33.368Z,6.35
2023-02-01T15:09:31.873Z,6.33
2023-02-01T15:12:13.511Z,6.31
2023-02-01T15:14:52.298Z,6.30
2023-02-01T15:17:34.650Z,6.28
2023-02-01T15:20:04.818Z,6.25
2023-02-01T15:22:36.957Z,6.22
2023-02-01T15:25:04.606Z,6.19
2023-02-01T15:27:34.138Z,6.16
2023-02-01T15:30:14.545Z,6.13
2023-02-01T15:32:42.077Z,6.07
2023-02-01T15:35:45.743Z,6.03
2023-02-01T15:38:46.032Z,5.99
2023-02-01T15:41:17.788Z,5.96
2023-02-01T15:44:03.650Z,5.92
2023-02-01T15:46:37.852Z,5.90
2023-02-01T15:49:06.435Z,5.88
2023-02-01T15:51:34.318Z,5.86
2023-02-01T15:54:06.209Z,5.85
2023-02-01T15:56:41.601Z,5.83
2023-02-01T15:59:20.486Z,5.83
2023-02-01T16:01:48.663Z,5.81
2023-02-01T16:04:22.127Z,5.79
2023-02-01T16:06:58.513Z,5.78
2023-02-01T16:09:38.238Z,5.80
2023-02-01T16:12:32.639Z,5.80
2023-02-01T16:15:00.043Z,5.81
2023-02-01T16:17:27.559Z,5.81
2023-02-01T16:19:55.287Z,5.79
2023-02-01T16:22:22.738Z,5.78
2023-02-01T16:24:50.297Z,5.77
2023-02-01T16:27:20.701Z,5.75
2023-02-01T16:29:48.500Z,5.75
2023-02-01T16:32:20.102Z,5.74
2023-02-01T16:34:48.617Z,5.73
2023-02-01T16:37:21.007Z,5.72
2023-02-01T16:39:48.595Z,5.69
2023-02-01T16:42:16.949Z,5.68
2023-02-01T16:44:44.453Z,5.65
2023-02-01T16:47:15.784Z,5.62
2023-02-01T16:49:44.197Z,5.63
2023-02-01T16:52:24.780Z,5.62
2023-02-01T16:54:52.178Z,5.62
2023-02-01T16:57:23.712Z,5.61
2023-02-01T16:59:51.995Z,5.61
2023-02-01T17:02:21.896Z,5.61
2023-02-01T17:04:50.156Z,5.63
2023-02-01T17:07:19.794Z,5.62
2023-02-01T17:09:48.258Z,5.63
2023-02-01T17:12:27.898Z,5.59
2023-02-01T17:14:55.261Z,5.58
2023-02-01T17:17:36.935Z,5.58
2023-02-01T17:20:07.349Z,5.57
2023-02-01T17:22:34.892Z,5.56
2023-02-01T17:25:02.248Z,5.54
2023-02-01T17:27:30.349Z,5.52
2023-02-01T17:29:57.633Z,5.51
2023-02-01T17:32:26.444Z,5.46
2023-02-01T17:34:54.055Z,5.45
2023-02-01T17:37:28.857Z,5.44
2023-02-01T17:39:56.482Z,5.40
2023-02-01T17:42:29.022Z,5.41
2023-02-01T17:45:02.706Z,5.41
2023-02-01T17:47:30.152Z,5.38
2023-02-01T17:49:57.516Z,5.37
2023-02-01T17:52:26.369Z,5.36
2023-02-01T17:54:54.344Z,5.36
2023-02-01T17:57:21.956Z,5.33
2023-02-01T17:59:49.400Z,5.30
2023-02-01T18:02:19.001Z,5.29
2023-02-01T18:04:46.334Z,5.26
2023-02-01T18:07:13.568Z,5.27
2023-02-01T18:09:41.485Z,5.25
2023-02-01T18:12:20.217Z,5.26
2023-02-01T18:14:48.047Z,5.26
2023-02-01T18:17:16.449Z,5.27
2023-02-01T18:19:44.499Z,5.27
2023-02-01T18:22:18.587Z,5.28
2023-02-01T18:24:47.381Z,5.27
2023-02-01T18:27:14.649Z,5.26
2023-02-01T18:29:42.007Z,5.26
2023-02-01T18:32:09.807Z,5.26
2023-02-01T18:34:37.263Z,5.29
2023-02-01T18:37:04.655Z,5.29
2023-02-01T18:39:32.270Z,5.31
2023-02-01T18:41:59.888Z,5.34
2023-02-01T18:44:27.334Z,5.34
2023-02-01T18:46:55.154Z,5.31
2023-02-01T18:49:22.485Z,5.28
2023-02-01T18:51:52.110Z,5.25
2023-02-01T18:54:20.087Z,5.24
2023-02-01T18:56:47.601Z,5.20
2023-02-01T18:59:17.501Z,5.17
2023-02-01T19:01:45.237Z,5.13
2023-02-01T19:04:19.170Z,5.11
2023-02-01T19:06:53.599Z,5.08
2023-02-01T19:09:20.885Z,5.06
2023-02-01T19:11:48.498Z,5.04
2023-02-01T19:14:15.852Z,5.03
2023-02-01T19:16:43.220Z,5.02
2023-02-01T19:19:10.814Z,4.99
2023-02-01T19:21:38.395Z,4.99
2023-02-01T19:24:05.968Z,4.98
2023-02-01T19:26:33.381Z,4.97
2023-02-01T19:29:00.909Z,4.95
2023-02-01T19:31:28.429Z,4.95
2023-02-01T19:33:55.979Z,4.94
2023-02-01T19:36:23.258Z,4.92
2023-02-01T19:38:51.230Z,4.93
2023-02-01T19:41:18.574Z,4.93
2023-02-01T19:43:46.341Z,4.93
2023-02-01T19:46:13.839Z,4.94
2023-02-01T19:48:41.972Z,4.95
2023-02-01T19:51:09.310Z,4.96
2023-02-01T19:53:36.561Z,4.98
2023-02-01T19:56:04.114Z,4.97
2023-02-01T19:58:31.791Z,4.97
2023-02-01T20:01:00.364Z,4.98
2023-02-01T20:03:28.591Z,5.00
2023-02-01T20:05:58.522Z,5.05
2023-02-01T20:08:27.069Z,5.08
2023-02-01T20:10:57.017Z,5.08
2023-02-01T20:13:25.092Z,5.07
2023-02-01T20:15:59.416Z,5.05
2023-02-01T20:18:28.000Z,5.04
2023-02-01T20:20:59.177Z,5.04
2023-02-01T20:23:27.962Z,5.04
2023-02-01T20:26:01.988Z,5.04
2023-02-01T20:28:29.759Z,5.05
2023-02-01T20:31:01.058Z,5.06
2023-02-01T20:33:30.307Z,5.07
2023-02-01T20:35:58.383Z,5.07
2023-02-01T20:38:26.224Z,5.09
2023-02-01T20:40:54.032Z,5.09
2023-02-01T20:43:22.883Z,5.11
2023-02-01T20:45:51.172Z,5.12
2023-02-01T20:48:18.920Z,5.13
2023-02-01T20:50:46.479Z,5.12
2023-02-01T20:53:25.316Z,5.11
2023-02-01T20:55:58.488Z,5.10
2023-02-01T20:58:26.929Z,5.08
2023-02-01T21:00:54.384Z,5.07
2023-02-01T21:03:23.202Z,5.07
2023-02-01T21:05:53.994Z,5.06
2023-02-01T21:08:24.016Z,5.07
2023-02-01T21:11:03.854Z,5.07
2023-02-01T21:13:38.204Z,5.08
2023-02-01T21:16:08.885Z,5.11
2023-02-01T21:18:36.687Z,5.10
2023-02-01T21:21:12.572Z,5.07
2023-02-01T21:23:46.731Z,5.04
2023-02-01T21:26:17.534Z,5.00
2023-02-01T21:28:45.367Z,4.96
2023-02-01T21:31:14.248Z,4.95
2023-02-01T21:33:41.781Z,4.94
2023-02-01T21:36:09.359Z,4.97
2023-02-01T21:38:36.735Z,4.97
2023-02-01T21:41:23.495Z,4.99
2023-02-01T21:43:51.392Z,5.00
2023-02-01T21:46:18.745Z,5.03
2023-02-01T21:49:05.434Z,5.04
2023-02-01T21:51:37.627Z,5.06
2023-02-01T21:54:06.662Z,5.07
2023-02-01T21:56:33.924Z,5.08
2023-02-01T21:59:01.434Z,5.08
2023-02-01T22:01:29.176Z,5.07
2023-02-01T22:03:56.424Z,5.07
2023-02-01T22:06:29.273Z,5.09
2023-02-01T22:08:56.768Z,5.13
2023-02-01T22:11:24.895Z,5.14
2023-02-01T22:13:52.244Z,5.17
2023-02-01T22:16:21.711Z,5.17
2023-02-01T22:18:51.019Z,5.16
2023-02-01T22:21:19.467Z,5.15
2023-02-01T22:23:59.055Z,5.15
2023-02-01T22:26:28.047Z,5.14
2023-02-01T22:28:55.700Z,5.14
2023-02-01T22:31:23.666Z,5.12
2023-02-01T22:33:51.282Z,5.11
2023-02-01T22:36:18.981Z,5.11
2023-02-01T22:38:47.782Z,5.10
2023-02-01T22:41:15.194Z,5.10
2023-02-01T22:43:42.877Z,5.11
2023-02-01T22:46:16.258Z,5.13
2023-02-01T22:48:45.372Z,5.14
2023-02-01T22:51:24.740Z,5.16
2023-02-01T22:53:57.061Z,5.14
2023-02-01T22:56:27.013Z,5.14
2023-02-01T22:58:56.555Z,5.12
2023-02-01T23:01:24.045Z,5.09
2023-02-01T23:03:51.660Z,5.05
2023-02-01T23:06:18.908Z,5.01
2023-02-01T23:08:46.783Z,4.96
2023-02-01T23:11:14.080Z,4.91
2023-02-01T23:13:41.638Z,4.86
2023-02-01T23:16:12.257Z,4.83
2023-02-01T23:18:43.715Z,4.81
2023-02-01T23:21:17.928Z,4.77
2023-02-01T23:23:50.397Z,4.73
2023-02-01T23:26:18.865Z,4.69
2023-02-01T23:28:46.291Z,4.66
2023-02-01T23:31:14.782Z,4.62
2023-02-01T23:33:45.179Z,4.61
2023-02-01T23:36:18.474Z,4.59
2023-02-01T23:38:46.827Z,4.59
2023-02-01T23:41:16.171Z,4.57
2023-02-01T23:43:59.682Z,4.58
2023-02-01T23:46:30.861Z,4.57
2023-02-01T23:49:00.176Z,4.57
2023-02-01T23:51:28.276Z,4.57
2023-02-01T23:53:56.555Z,4.59
2023-02-01T23:56:33.678Z,4.60
2023-02-01T23:59:02.767Z,4.60
